sensor_id;sensor_type;location;lat;lon;timestamp;P1;durP1;ratioP1;P2;durP2;ratioP2
20695;SDS011;10507;52.754;13.040;2023-07-29T00:01:22;11.32;;;5.90;;
20695;SDS011;10507;52.754;13.040;2023-07-29T00:03:51;10.43;;;5.93;;
20695;SDS011;10507;52.754;13.040;2023-07-29T00:06:20;7.53;;;5.65;;
20695;SDS011;10507;52.754;13.040;2023-07-29T00:08:48;12.85;;;5.95;;
20695;SDS011;10507;52.754;13.040;2023-07-29T00:11:16;8.45;;;6.05;;
20695;SDS011;10507;52.754;13.040;2023-07-29T00:13:44;7.97;;;5.28;;
20695;SDS011;10507;52.754;13.040;2023-07-29T00:16:13;6.93;;;3.78;;
20695;SDS011;10507;52.754;13.040;2023-07-29T00:18:43;6.60;;;5.00;;
20695;SDS011;10507;52.754;13.040;2023-07-29T00:21:14;9.68;;;5.28;;
20695;SDS011;10507;52.754;13.040;2023-07-29T00:23:44;7.03;;;5.43;;
20695;SDS011;10507;52.754;13.040;2023-07-29T00:26:13;7.45;;;5.15;;
20695;SDS011;10507;52.754;13.040;2023-07-29T00:28:45;8.05;;;5.57;;
20695;SDS011;10507;52.754;13.040;2023-07-29T00:31:14;7.40;;;5.03;;
20695;SDS011;10507;52.754;13.040;2023-07-29T00:33:42;11.55;;;5.20;;
20695;SDS011;10507;52.754;13.040;2023-07-29T00:36:11;6.82;;;5.40;;
20695;SDS011;10507;52.754;13.040;2023-07-29T00:38:41;6.88;;;4.80;;
20695;SDS011;10507;52.754;13.040;2023-07-29T00:41:10;6.45;;;4.65;;
20695;SDS011;10507;52.754;13.040;2023-07-29T00:44:02;10.45;;;4.55;;
20695;SDS011;10507;52.754;13.040;2023-07-29T00:47:09;8.52;;;5.15;;
20695;SDS011;10507;52.754;13.040;2023-07-29T00:49:41;7.90;;;4.63;;
20695;SDS011;10507;52.754;13.040;2023-07-29T00:52:11;8.48;;;5.32;;
20695;SDS011;10507;52.754;13.040;2023-07-29T00:54:41;9.80;;;5.45;;
20695;SDS011;10507;52.754;13.040;2023-07-29T00:57:10;7.50;;;5.38;;
20695;SDS011;10507;52.754;13.040;2023-07-29T00:59:41;8.85;;;4.85;;
20695;SDS011;10507;52.754;13.040;2023-07-29T01:02:09;7.63;;;5.70;;
20695;SDS011;10507;52.754;13.040;2023-07-29T01:04:38;9.73;;;5.65;;
20695;SDS011;10507;52.754;13.040;2023-07-29T01:07:07;6.70;;;5.22;;
20695;SDS011;10507;52.754;13.040;2023-07-29T01:09:50;6.53;;;4.80;;
20695;SDS011;10507;52.754;13.040;2023-07-29T01:12:27;6.68;;;4.70;;
20695;SDS011;10507;52.754;13.040;2023-07-29T01:15:05;9.02;;;4.95;;
20695;SDS011;10507;52.754;13.040;2023-07-29T01:17:40;6.35;;;4.90;;
20695;SDS011;10507;52.754;13.040;2023-07-29T01:20:11;6.90;;;5.30;;
20695;SDS011;10507;52.754;13.040;2023-07-29T01:22:43;6.57;;;4.88;;
20695;SDS011;10507;52.754;13.040;2023-07-29T01:25:13;6.95;;;5.28;;
20695;SDS011;10507;52.754;13.040;2023-07-29T01:27:41;8.30;;;5.22;;
20695;SDS011;10507;52.754;13.040;2023-07-29T01:33:09;8.77;;;5.38;;
20695;SDS011;10507;52.754;13.040;2023-07-29T01:35:42;12.38;;;6.00;;
20695;SDS011;10507;52.754;13.040;2023-07-29T01:38:14;7.13;;;5.57;;
20695;SDS011;10507;52.754;13.040;2023-07-29T01:40:47;7.80;;;6.07;;
20695;SDS011;10507;52.754;13.040;2023-07-29T01:43:16;10.60;;;5.50;;
20695;SDS011;10507;52.754;13.040;2023-07-29T01:45:45;7.95;;;5.50;;
20695;SDS011;10507;52.754;13.040;2023-07-29T01:48:13;14.55;;;6.05;;
20695;SDS011;10507;52.754;13.040;2023-07-29T01:50:41;9.27;;;5.95;;
20695;SDS011;10507;52.754;13.040;2023-07-29T01:53:09;8.50;;;6.10;;
20695;SDS011;10507;52.754;13.040;2023-07-29T01:55:38;7.97;;;5.78;;
20695;SDS011;10507;52.754;13.040;2023-07-29T01:58:07;7.82;;;6.32;;
20695;SDS011;10507;52.754;13.040;2023-07-29T02:00:35;7.75;;;6.07;;
20695;SDS011;10507;52.754;13.040;2023-07-29T02:03:04;8.93;;;6.57;;
20695;SDS011;10507;52.754;13.040;2023-07-29T02:05:32;10.70;;;6.93;;
20695;SDS011;10507;52.754;13.040;2023-07-29T02:08:00;10.18;;;7.22;;
20695;SDS011;10507;52.754;13.040;2023-07-29T02:10:28;10.20;;;7.60;;
20695;SDS011;10507;52.754;13.040;2023-07-29T02:12:56;9.00;;;6.68;;
20695;SDS011;10507;52.754;13.040;2023-07-29T02:15:25;9.38;;;7.07;;
20695;SDS011;10507;52.754;13.040;2023-07-29T02:17:54;12.02;;;8.00;;
20695;SDS011;10507;52.754;13.040;2023-07-29T02:20:22;11.23;;;7.75;;
20695;SDS011;10507;52.754;13.040;2023-07-29T02:22:50;12.40;;;8.10;;
20695;SDS011;10507;52.754;13.040;2023-07-29T02:25:18;12.05;;;8.13;;
20695;SDS011;10507;52.754;13.040;2023-07-29T02:27:46;12.18;;;7.22;;
20695;SDS011;10507;52.754;13.040;2023-07-29T02:30:14;10.35;;;8.05;;
20695;SDS011;10507;52.754;13.040;2023-07-29T02:33:08;10.55;;;8.27;;
20695;SDS011;10507;52.754;13.040;2023-07-29T02:35:36;11.60;;;8.43;;
20695;SDS011;10507;52.754;13.040;2023-07-29T02:38:04;13.32;;;8.77;;
20695;SDS011;10507;52.754;13.040;2023-07-29T02:40:32;10.15;;;7.85;;
20695;SDS011;10507;52.754;13.040;2023-07-29T02:43:00;10.13;;;8.13;;
20695;SDS011;10507;52.754;13.040;2023-07-29T02:45:28;11.30;;;8.43;;
20695;SDS011;10507;52.754;13.040;2023-07-29T02:47:56;10.32;;;7.95;;
20695;SDS011;10507;52.754;13.040;2023-07-29T02:50:26;13.40;;;8.13;;
20695;SDS011;10507;52.754;13.040;2023-07-29T02:52:54;11.40;;;7.85;;
20695;SDS011;10507;52.754;13.040;2023-07-29T02:55:22;10.45;;;8.27;;
20695;SDS011;10507;52.754;13.040;2023-07-29T02:57:50;9.63;;;7.57;;
20695;SDS011;10507;52.754;13.040;2023-07-29T03:00:18;11.60;;;7.85;;
20695;SDS011;10507;52.754;13.040;2023-07-29T03:02:46;9.35;;;7.43;;
20695;SDS011;10507;52.754;13.040;2023-07-29T03:05:14;9.75;;;7.38;;
20695;SDS011;10507;52.754;13.040;2023-07-29T03:07:44;11.55;;;7.85;;
20695;SDS011;10507;52.754;13.040;2023-07-29T03:10:12;9.65;;;6.53;;
20695;SDS011;10507;52.754;13.040;2023-07-29T03:12:41;9.88;;;7.60;;
20695;SDS011;10507;52.754;13.040;2023-07-29T03:15:09;8.88;;;6.65;;
20695;SDS011;10507;52.754;13.040;2023-07-29T03:17:37;7.82;;;6.00;;
20695;SDS011;10507;52.754;13.040;2023-07-29T03:20:06;9.63;;;6.50;;
20695;SDS011;10507;52.754;13.040;2023-07-29T03:22:35;7.85;;;6.18;;
20695;SDS011;10507;52.754;13.040;2023-07-29T03:25:07;8.95;;;6.40;;
20695;SDS011;10507;52.754;13.040;2023-07-29T03:27:36;7.80;;;6.20;;
20695;SDS011;10507;52.754;13.040;2023-07-29T03:30:06;8.88;;;6.13;;
20695;SDS011;10507;52.754;13.040;2023-07-29T03:32:34;8.63;;;6.68;;
20695;SDS011;10507;52.754;13.040;2023-07-29T03:35:04;8.40;;;5.95;;
20695;SDS011;10507;52.754;13.040;2023-07-29T03:37:32;9.18;;;5.90;;
20695;SDS011;10507;52.754;13.040;2023-07-29T03:40:00;9.23;;;6.88;;
20695;SDS011;10507;52.754;13.040;2023-07-29T03:42:32;11.68;;;7.35;;
20695;SDS011;10507;52.754;13.040;2023-07-29T03:45:00;9.95;;;7.03;;
20695;SDS011;10507;52.754;13.040;2023-07-29T03:47:28;10.20;;;7.65;;
20695;SDS011;10507;52.754;13.040;2023-07-29T03:49:56;9.88;;;6.68;;
20695;SDS011;10507;52.754;13.040;2023-07-29T03:52:24;9.88;;;6.95;;
20695;SDS011;10507;52.754;13.040;2023-07-29T03:54:52;12.02;;;7.30;;
20695;SDS011;10507;52.754;13.040;2023-07-29T03:57:20;10.15;;;6.90;;
20695;SDS011;10507;52.754;13.040;2023-07-29T03:59:49;10.40;;;7.43;;
20695;SDS011;10507;52.754;13.040;2023-07-29T04:02:18;9.68;;;6.70;;
20695;SDS011;10507;52.754;13.040;2023-07-29T04:04:46;11.77;;;7.30;;
20695;SDS011;10507;52.754;13.040;2023-07-29T04:07:14;9.23;;;6.93;;
20695;SDS011;10507;52.754;13.040;2023-07-29T04:09:43;9.70;;;7.70;;
20695;SDS011;10507;52.754;13.040;2023-07-29T04:12:11;9.57;;;6.47;;
20695;SDS011;10507;52.754;13.040;2023-07-29T04:14:39;9.93;;;6.90;;
20695;SDS011;10507;52.754;13.040;2023-07-29T04:17:09;9.32;;;6.95;;
20695;SDS011;10507;52.754;13.040;2023-07-29T04:19:37;9.07;;;6.93;;
20695;SDS011;10507;52.754;13.040;2023-07-29T04:22:05;10.57;;;7.32;;
20695;SDS011;10507;52.754;13.040;2023-07-29T04:24:33;9.70;;;6.90;;
20695;SDS011;10507;52.754;13.040;2023-07-29T04:27:02;11.23;;;7.60;;
20695;SDS011;10507;52.754;13.040;2023-07-29T04:29:30;10.50;;;6.45;;
20695;SDS011;10507;52.754;13.040;2023-07-29T04:31:58;8.73;;;7.10;;
20695;SDS011;10507;52.754;13.040;2023-07-29T04:34:29;11.82;;;7.43;;
20695;SDS011;10507;52.754;13.040;2023-07-29T04:36:59;11.63;;;6.93;;
20695;SDS011;10507;52.754;13.040;2023-07-29T04:39:27;10.20;;;6.57;;
20695;SDS011;10507;52.754;13.040;2023-07-29T04:41:55;12.13;;;6.95;;
20695;SDS011;10507;52.754;13.040;2023-07-29T04:44:23;10.35;;;6.72;;
20695;SDS011;10507;52.754;13.040;2023-07-29T04:46:51;9.65;;;6.95;;
20695;SDS011;10507;52.754;13.040;2023-07-29T04:49:20;9.18;;;6.88;;
20695;SDS011;10507;52.754;13.040;2023-07-29T04:51:49;8.90;;;7.03;;
20695;SDS011;10507;52.754;13.040;2023-07-29T04:54:17;8.77;;;6.03;;
20695;SDS011;10507;52.754;13.040;2023-07-29T04:56:47;8.32;;;6.03;;
20695;SDS011;10507;52.754;13.040;2023-07-29T04:59:15;7.05;;;6.03;;
20695;SDS011;10507;52.754;13.040;2023-07-29T05:01:43;6.57;;;4.88;;
20695;SDS011;10507;52.754;13.040;2023-07-29T05:04:12;8.00;;;5.47;;
20695;SDS011;10507;52.754;13.040;2023-07-29T05:06:40;9.35;;;5.28;;
20695;SDS011;10507;52.754;13.040;2023-07-29T05:09:15;7.80;;;5.85;;
20695;SDS011;10507;52.754;13.040;2023-07-29T05:11:46;7.20;;;5.30;;
20695;SDS011;10507;52.754;13.040;2023-07-29T05:14:15;6.00;;;5.28;;
20695;SDS011;10507;52.754;13.040;2023-07-29T05:16:44;6.65;;;5.22;;
20695;SDS011;10507;52.754;13.040;2023-07-29T05:19:13;5.97;;;4.78;;
20695;SDS011;10507;52.754;13.040;2023-07-29T05:21:41;7.55;;;5.00;;
20695;SDS011;10507;52.754;13.040;2023-07-29T05:24:09;5.60;;;4.40;;
20695;SDS011;10507;52.754;13.040;2023-07-29T05:26:38;4.32;;;3.63;;
20695;SDS011;10507;52.754;13.040;2023-07-29T05:29:06;5.57;;;4.45;;
20695;SDS011;10507;52.754;13.040;2023-07-29T05:31:34;5.25;;;3.85;;
20695;SDS011;10507;52.754;13.040;2023-07-29T05:34:02;4.80;;;4.30;;
20695;SDS011;10507;52.754;13.040;2023-07-29T05:36:30;5.38;;;3.72;;
20695;SDS011;10507;52.754;13.040;2023-07-29T05:38:59;5.60;;;3.95;;
20695;SDS011;10507;52.754;13.040;2023-07-29T05:41:27;4.32;;;3.75;;
20695;SDS011;10507;52.754;13.040;2023-07-29T05:43:56;6.03;;;4.03;;
20695;SDS011;10507;52.754;13.040;2023-07-29T05:46:24;5.00;;;4.40;;
20695;SDS011;10507;52.754;13.040;2023-07-29T05:48:52;5.13;;;4.15;;
20695;SDS011;10507;52.754;13.040;2023-07-29T05:51:21;5.80;;;4.15;;
20695;SDS011;10507;52.754;13.040;2023-07-29T05:53:49;7.68;;;4.18;;
20695;SDS011;10507;52.754;13.040;2023-07-29T05:56:17;4.95;;;3.60;;
20695;SDS011;10507;52.754;13.040;2023-07-29T05:58:45;6.38;;;4.47;;
20695;SDS011;10507;52.754;13.040;2023-07-29T06:01:15;5.72;;;3.97;;
20695;SDS011;10507;52.754;13.040;2023-07-29T06:03:43;5.05;;;3.83;;
20695;SDS011;10507;52.754;13.040;2023-07-29T06:06:11;6.07;;;3.80;;
20695;SDS011;10507;52.754;13.040;2023-07-29T06:08:39;8.02;;;4.47;;
20695;SDS011;10507;52.754;13.040;2023-07-29T06:11:07;7.78;;;4.57;;
20695;SDS011;10507;52.754;13.040;2023-07-29T06:13:35;6.45;;;4.35;;
20695;SDS011;10507;52.754;13.040;2023-07-29T06:16:03;5.38;;;4.43;;
20695;SDS011;10507;52.754;13.040;2023-07-29T06:18:39;4.90;;;3.92;;
20695;SDS011;10507;52.754;13.040;2023-07-29T06:21:08;5.18;;;4.43;;
20695;SDS011;10507;52.754;13.040;2023-07-29T06:23:38;5.57;;;4.20;;
20695;SDS011;10507;52.754;13.040;2023-07-29T06:26:06;6.20;;;4.40;;
20695;SDS011;10507;52.754;13.040;2023-07-29T06:28:35;5.35;;;4.35;;
20695;SDS011;10507;52.754;13.040;2023-07-29T06:31:03;7.85;;;4.63;;
20695;SDS011;10507;52.754;13.040;2023-07-29T06:33:31;5.30;;;4.75;;
20695;SDS011;10507;52.754;13.040;2023-07-29T06:36:00;7.00;;;4.57;;
20695;SDS011;10507;52.754;13.040;2023-07-29T06:38:29;7.82;;;4.63;;
20695;SDS011;10507;52.754;13.040;2023-07-29T06:41:01;3.92;;;3.47;;
20695;SDS011;10507;52.754;13.040;2023-07-29T06:43:29;5.10;;;4.45;;
20695;SDS011;10507;52.754;13.040;2023-07-29T06:45:57;6.75;;;3.92;;
20695;SDS011;10507;52.754;13.040;2023-07-29T06:48:26;6.88;;;4.55;;
20695;SDS011;10507;52.754;13.040;2023-07-29T06:50:54;4.40;;;3.80;;
20695;SDS011;10507;52.754;13.040;2023-07-29T06:53:28;5.90;;;4.30;;
20695;SDS011;10507;52.754;13.040;2023-07-29T06:56:00;8.10;;;4.45;;
20695;SDS011;10507;52.754;13.040;2023-07-29T06:58:28;7.05;;;4.88;;
20695;SDS011;10507;52.754;13.040;2023-07-29T07:00:56;6.20;;;4.47;;
20695;SDS011;10507;52.754;13.040;2023-07-29T07:03:24;7.70;;;4.68;;
20695;SDS011;10507;52.754;13.040;2023-07-29T07:05:52;5.10;;;4.47;;
20695;SDS011;10507;52.754;13.040;2023-07-29T07:08:22;5.00;;;4.00;;
20695;SDS011;10507;52.754;13.040;2023-07-29T07:10:52;6.03;;;4.85;;
20695;SDS011;10507;52.754;13.040;2023-07-29T07:13:20;5.35;;;4.63;;
20695;SDS011;10507;52.754;13.040;2023-07-29T07:15:49;5.22;;;4.25;;
20695;SDS011;10507;52.754;13.040;2023-07-29T07:18:17;4.30;;;3.58;;
20695;SDS011;10507;52.754;13.040;2023-07-29T07:20:48;6.80;;;4.38;;
20695;SDS011;10507;52.754;13.040;2023-07-29T07:23:17;5.10;;;4.18;;
20695;SDS011;10507;52.754;13.040;2023-07-29T07:25:45;6.82;;;5.28;;
20695;SDS011;10507;52.754;13.040;2023-07-29T07:28:14;6.25;;;4.35;;
20695;SDS011;10507;52.754;13.040;2023-07-29T07:30:45;6.03;;;3.80;;
20695;SDS011;10507;52.754;13.040;2023-07-29T07:33:13;6.55;;;4.00;;
20695;SDS011;10507;52.754;13.040;2023-07-29T07:35:41;4.10;;;3.53;;
20695;SDS011;10507;52.754;13.040;2023-07-29T07:38:09;4.60;;;3.83;;
20695;SDS011;10507;52.754;13.040;2023-07-29T07:40:38;5.03;;;3.95;;
20695;SDS011;10507;52.754;13.040;2023-07-29T07:43:08;4.53;;;3.78;;
20695;SDS011;10507;52.754;13.040;2023-07-29T07:45:37;5.38;;;3.78;;
20695;SDS011;10507;52.754;13.040;2023-07-29T07:48:05;4.82;;;3.38;;
20695;SDS011;10507;52.754;13.040;2023-07-29T07:50:36;4.45;;;3.42;;
20695;SDS011;10507;52.754;13.040;2023-07-29T07:53:04;4.35;;;2.67;;
20695;SDS011;10507;52.754;13.040;2023-07-29T07:55:32;4.28;;;3.00;;
20695;SDS011;10507;52.754;13.040;2023-07-29T07:58:00;6.07;;;3.72;;
20695;SDS011;10507;52.754;13.040;2023-07-29T08:00:28;4.00;;;3.05;;
20695;SDS011;10507;52.754;13.040;2023-07-29T08:02:58;5.35;;;3.75;;
20695;SDS011;10507;52.754;13.040;2023-07-29T08:05:26;4.88;;;3.10;;
20695;SDS011;10507;52.754;13.040;2023-07-29T08:07:54;3.92;;;3.22;;
20695;SDS011;10507;52.754;13.040;2023-07-29T08:10:23;4.13;;;2.90;;
20695;SDS011;10507;52.754;13.040;2023-07-29T08:12:52;6.22;;;3.20;;
20695;SDS011;10507;52.754;13.040;2023-07-29T08:15:20;4.55;;;3.17;;
20695;SDS011;10507;52.754;13.040;2023-07-29T08:17:48;3.53;;;2.78;;
20695;SDS011;10507;52.754;13.040;2023-07-29T08:20:18;4.45;;;3.08;;
20695;SDS011;10507;52.754;13.040;2023-07-29T08:22:46;4.55;;;3.30;;
20695;SDS011;10507;52.754;13.040;2023-07-29T08:25:14;3.60;;;2.90;;
20695;SDS011;10507;52.754;13.040;2023-07-29T08:27:42;8.85;;;3.53;;
20695;SDS011;10507;52.754;13.040;2023-07-29T08:30:10;3.03;;;2.70;;
20695;SDS011;10507;52.754;13.040;2023-07-29T08:32:38;4.93;;;3.10;;
20695;SDS011;10507;52.754;13.040;2023-07-29T08:35:07;6.60;;;3.58;;
20695;SDS011;10507;52.754;13.040;2023-07-29T08:37:37;5.03;;;3.40;;
20695;SDS011;10507;52.754;13.040;2023-07-29T08:40:05;4.07;;;3.03;;
20695;SDS011;10507;52.754;13.040;2023-07-29T08:42:34;4.10;;;3.13;;
20695;SDS011;10507;52.754;13.040;2023-07-29T08:45:12;3.60;;;3.05;;
20695;SDS011;10507;52.754;13.040;2023-07-29T08:47:42;4.45;;;3.13;;
20695;SDS011;10507;52.754;13.040;2023-07-29T08:50:10;5.95;;;4.07;;
20695;SDS011;10507;52.754;13.040;2023-07-29T08:52:42;5.65;;;3.00;;
20695;SDS011;10507;52.754;13.040;2023-07-29T08:55:11;4.03;;;3.10;;
20695;SDS011;10507;52.754;13.040;2023-07-29T08:57:43;4.85;;;3.53;;
20695;SDS011;10507;52.754;13.040;2023-07-29T09:00:12;4.03;;;3.60;;
20695;SDS011;10507;52.754;13.040;2023-07-29T09:02:44;4.10;;;3.20;;
20695;SDS011;10507;52.754;13.040;2023-07-29T09:05:12;4.85;;;3.42;;
20695;SDS011;10507;52.754;13.040;2023-07-29T09:07:42;4.55;;;3.35;;
20695;SDS011;10507;52.754;13.040;2023-07-29T09:10:12;5.00;;;3.95;;
20695;SDS011;10507;52.754;13.040;2023-07-29T09:12:40;5.15;;;3.78;;
20695;SDS011;10507;52.754;13.040;2023-07-29T09:15:09;3.95;;;3.55;;
20695;SDS011;10507;52.754;13.040;2023-07-29T09:17:38;4.25;;;3.30;;
20695;SDS011;10507;52.754;13.040;2023-07-29T09:20:09;6.25;;;3.60;;
20695;SDS011;10507;52.754;13.040;2023-07-29T09:22:38;3.75;;;3.17;;
20695;SDS011;10507;52.754;13.040;2023-07-29T09:25:08;4.65;;;3.10;;
20695;SDS011;10507;52.754;13.040;2023-07-29T09:27:36;3.42;;;2.75;;
20695;SDS011;10507;52.754;13.040;2023-07-29T09:30:06;5.15;;;3.35;;
20695;SDS011;10507;52.754;13.040;2023-07-29T09:32:42;3.97;;;2.58;;
20695;SDS011;10507;52.754;13.040;2023-07-29T09:35:11;5.20;;;3.50;;
20695;SDS011;10507;52.754;13.040;2023-07-29T09:37:39;3.38;;;2.55;;
20695;SDS011;10507;52.754;13.040;2023-07-29T09:40:12;3.75;;;2.75;;
20695;SDS011;10507;52.754;13.040;2023-07-29T09:42:47;3.63;;;2.40;;
20695;SDS011;10507;52.754;13.040;2023-07-29T09:45:23;2.85;;;2.42;;
20695;SDS011;10507;52.754;13.040;2023-07-29T09:47:52;2.65;;;2.22;;
20695;SDS011;10507;52.754;13.040;2023-07-29T09:50:46;3.53;;;2.25;;
20695;SDS011;10507;52.754;13.040;2023-07-29T09:53:15;2.20;;;1.98;;
20695;SDS011;10507;52.754;13.040;2023-07-29T09:55:47;2.72;;;1.88;;
20695;SDS011;10507;52.754;13.040;2023-07-29T09:58:19;2.83;;;2.42;;
20695;SDS011;10507;52.754;13.040;2023-07-29T10:00:53;5.88;;;2.00;;
20695;SDS011;10507;52.754;13.040;2023-07-29T10:03:22;2.72;;;1.77;;
20695;SDS011;10507;52.754;13.040;2023-07-29T10:05:50;6.55;;;2.10;;
20695;SDS011;10507;52.754;13.040;2023-07-29T10:08:19;8.07;;;2.05;;
20695;SDS011;10507;52.754;13.040;2023-07-29T10:10:51;4.53;;;2.20;;
20695;SDS011;10507;52.754;13.040;2023-07-29T10:13:20;6.72;;;2.70;;
20695;SDS011;10507;52.754;13.040;2023-07-29T10:15:49;5.78;;;2.55;;
20695;SDS011;10507;52.754;13.040;2023-07-29T10:18:18;6.25;;;2.28;;
20695;SDS011;10507;52.754;13.040;2023-07-29T10:20:46;5.88;;;2.97;;
20695;SDS011;10507;52.754;13.040;2023-07-29T10:23:15;7.35;;;2.45;;
20695;SDS011;10507;52.754;13.040;2023-07-29T10:25:46;4.18;;;2.38;;
20695;SDS011;10507;52.754;13.040;2023-07-29T10:28:23;3.83;;;2.15;;
20695;SDS011;10507;52.754;13.040;2023-07-29T10:30:54;5.50;;;2.08;;
20695;SDS011;10507;52.754;13.040;2023-07-29T10:33:23;4.32;;;2.00;;
20695;SDS011;10507;52.754;13.040;2023-07-29T10:35:53;4.55;;;2.00;;
20695;SDS011;10507;52.754;13.040;2023-07-29T10:38:22;2.55;;;2.35;;
20695;SDS011;10507;52.754;13.040;2023-07-29T10:40:52;4.10;;;2.13;;
20695;SDS011;10507;52.754;13.040;2023-07-29T10:43:28;3.00;;;2.00;;
20695;SDS011;10507;52.754;13.040;2023-07-29T10:46:14;4.38;;;2.10;;
20695;SDS011;10507;52.754;13.040;2023-07-29T10:49:07;4.60;;;2.35;;
20695;SDS011;10507;52.754;13.040;2023-07-29T10:51:36;2.88;;;2.17;;
20695;SDS011;10507;52.754;13.040;2023-07-29T10:54:09;3.95;;;2.63;;
20695;SDS011;10507;52.754;13.040;2023-07-29T10:56:40;3.05;;;2.53;;
20695;SDS011;10507;52.754;13.040;2023-07-29T11:02:01;5.35;;;2.67;;
20695;SDS011;10507;52.754;13.040;2023-07-29T11:04:29;5.38;;;2.95;;
20695;SDS011;10507;52.754;13.040;2023-07-29T11:10:02;5.45;;;2.70;;
20695;SDS011;10507;52.754;13.040;2023-07-29T11:12:44;7.55;;;2.90;;
20695;SDS011;10507;52.754;13.040;2023-07-29T11:15:16;4.90;;;2.53;;
20695;SDS011;10507;52.754;13.040;2023-07-29T11:17:47;3.08;;;2.20;;
20695;SDS011;10507;52.754;13.040;2023-07-29T11:20:17;7.00;;;2.58;;
20695;SDS011;10507;52.754;13.040;2023-07-29T11:22:46;3.53;;;2.65;;
20695;SDS011;10507;52.754;13.040;2023-07-29T11:25:15;4.05;;;2.47;;
20695;SDS011;10507;52.754;13.040;2023-07-29T11:27:45;4.65;;;2.40;;
20695;SDS011;10507;52.754;13.040;2023-07-29T11:30:14;4.95;;;2.67;;
20695;SDS011;10507;52.754;13.040;2023-07-29T11:32:44;3.97;;;3.03;;
20695;SDS011;10507;52.754;13.040;2023-07-29T11:35:13;3.58;;;2.40;;
20695;SDS011;10507;52.754;13.040;2023-07-29T11:37:44;6.57;;;3.20;;
20695;SDS011;10507;52.754;13.040;2023-07-29T11:40:13;4.38;;;2.67;;
20695;SDS011;10507;52.754;13.040;2023-07-29T11:42:43;4.25;;;2.92;;
20695;SDS011;10507;52.754;13.040;2023-07-29T11:45:11;3.67;;;2.95;;
20695;SDS011;10507;52.754;13.040;2023-07-29T11:47:44;3.58;;;2.40;;
20695;SDS011;10507;52.754;13.040;2023-07-29T11:50:15;5.07;;;3.05;;
20695;SDS011;10507;52.754;13.040;2023-07-29T11:52:43;3.75;;;2.78;;
20695;SDS011;10507;52.754;13.040;2023-07-29T11:55:13;5.95;;;3.03;;
20695;SDS011;10507;52.754;13.040;2023-07-29T11:57:42;3.97;;;2.65;;
20695;SDS011;10507;52.754;13.040;2023-07-29T12:00:11;5.05;;;3.17;;
20695;SDS011;10507;52.754;13.040;2023-07-29T12:02:41;4.68;;;3.17;;
20695;SDS011;10507;52.754;13.040;2023-07-29T12:05:13;3.63;;;2.70;;
20695;SDS011;10507;52.754;13.040;2023-07-29T12:07:42;5.90;;;2.97;;
20695;SDS011;10507;52.754;13.040;2023-07-29T12:10:11;3.33;;;2.40;;
20695;SDS011;10507;52.754;13.040;2023-07-29T12:12:45;5.80;;;3.08;;
20695;SDS011;10507;52.754;13.040;2023-07-29T12:15:13;3.83;;;2.47;;
20695;SDS011;10507;52.754;13.040;2023-07-29T12:17:52;2.75;;;2.40;;
20695;SDS011;10507;52.754;13.040;2023-07-29T12:20:24;3.78;;;2.67;;
20695;SDS011;10507;52.754;13.040;2023-07-29T12:22:53;2.80;;;1.60;;
20695;SDS011;10507;52.754;13.040;2023-07-29T12:25:22;2.67;;;1.95;;
20695;SDS011;10507;52.754;13.040;2023-07-29T12:27:50;2.85;;;1.80;;
20695;SDS011;10507;52.754;13.040;2023-07-29T12:30:20;2.30;;;1.65;;
20695;SDS011;10507;52.754;13.040;2023-07-29T12:32:48;4.45;;;2.00;;
20695;SDS011;10507;52.754;13.040;2023-07-29T12:35:16;3.03;;;1.77;;
20695;SDS011;10507;52.754;13.040;2023-07-29T12:37:46;2.95;;;2.10;;
20695;SDS011;10507;52.754;13.040;2023-07-29T12:40:20;3.40;;;1.80;;
20695;SDS011;10507;52.754;13.040;2023-07-29T12:42:50;2.95;;;1.80;;
20695;SDS011;10507;52.754;13.040;2023-07-29T12:45:19;3.03;;;1.75;;
20695;SDS011;10507;52.754;13.040;2023-07-29T12:47:50;2.22;;;1.60;;
20695;SDS011;10507;52.754;13.040;2023-07-29T12:50:18;3.83;;;1.65;;
20695;SDS011;10507;52.754;13.040;2023-07-29T12:53:12;3.40;;;1.92;;
20695;SDS011;10507;52.754;13.040;2023-07-29T12:55:40;2.33;;;1.65;;
20695;SDS011;10507;52.754;13.040;2023-07-29T12:58:08;3.35;;;1.60;;
20695;SDS011;10507;52.754;13.040;2023-07-29T13:00:36;4.65;;;1.92;;
20695;SDS011;10507;52.754;13.040;2023-07-29T13:03:04;3.10;;;1.60;;
20695;SDS011;10507;52.754;13.040;2023-07-29T13:05:33;3.05;;;1.60;;
20695;SDS011;10507;52.754;13.040;2023-07-29T13:08:01;1.80;;;1.40;;
20695;SDS011;10507;52.754;13.040;2023-07-29T13:10:32;2.35;;;1.40;;
20695;SDS011;10507;52.754;13.040;2023-07-29T13:13:03;2.13;;;1.23;;
20695;SDS011;10507;52.754;13.040;2023-07-29T13:15:34;1.13;;;1.02;;
20695;SDS011;10507;52.754;13.040;2023-07-29T13:18:03;3.10;;;1.10;;
20695;SDS011;10507;52.754;13.040;2023-07-29T13:20:31;1.83;;;1.15;;
20695;SDS011;10507;52.754;13.040;2023-07-29T13:23:06;1.02;;;0.90;;
20695;SDS011;10507;52.754;13.040;2023-07-29T13:25:36;2.83;;;1.30;;
20695;SDS011;10507;52.754;13.040;2023-07-29T13:28:08;1.83;;;1.17;;
20695;SDS011;10507;52.754;13.040;2023-07-29T13:30:36;1.90;;;1.00;;
20695;SDS011;10507;52.754;13.040;2023-07-29T13:33:04;2.10;;;1.05;;
20695;SDS011;10507;52.754;13.040;2023-07-29T13:35:33;1.52;;;1.13;;
20695;SDS011;10507;52.754;13.040;2023-07-29T13:38:01;2.28;;;1.00;;
20695;SDS011;10507;52.754;13.040;2023-07-29T13:40:30;2.28;;;0.90;;
20695;SDS011;10507;52.754;13.040;2023-07-29T13:43:00;2.38;;;0.98;;
20695;SDS011;10507;52.754;13.040;2023-07-29T13:45:28;2.25;;;0.90;;
20695;SDS011;10507;52.754;13.040;2023-07-29T13:47:59;2.67;;;1.00;;
20695;SDS011;10507;52.754;13.040;2023-07-29T13:50:27;1.15;;;0.90;;
20695;SDS011;10507;52.754;13.040;2023-07-29T13:52:56;1.10;;;1.00;;
20695;SDS011;10507;52.754;13.040;2023-07-29T13:55:24;0.82;;;0.75;;
20695;SDS011;10507;52.754;13.040;2023-07-29T13:57:52;0.90;;;0.85;;
20695;SDS011;10507;52.754;13.040;2023-07-29T14:00:22;2.13;;;1.08;;
20695;SDS011;10507;52.754;13.040;2023-07-29T14:02:50;1.45;;;1.10;;
20695;SDS011;10507;52.754;13.040;2023-07-29T14:05:19;1.80;;;1.20;;
20695;SDS011;10507;52.754;13.040;2023-07-29T14:07:47;2.55;;;1.08;;
20695;SDS011;10507;52.754;13.040;2023-07-29T14:10:16;2.95;;;1.48;;
20695;SDS011;10507;52.754;13.040;2023-07-29T14:12:44;1.80;;;0.82;;
20695;SDS011;10507;52.754;13.040;2023-07-29T14:15:12;1.80;;;1.10;;
20695;SDS011;10507;52.754;13.040;2023-07-29T14:17:41;1.63;;;0.88;;
20695;SDS011;10507;52.754;13.040;2023-07-29T14:20:09;2.08;;;0.90;;
20695;SDS011;10507;52.754;13.040;2023-07-29T14:22:38;1.60;;;1.30;;
20695;SDS011;10507;52.754;13.040;2023-07-29T14:25:07;3.13;;;1.52;;
20695;SDS011;10507;52.754;13.040;2023-07-29T14:27:35;1.77;;;1.25;;
20695;SDS011;10507;52.754;13.040;2023-07-29T14:30:04;1.77;;;1.17;;
20695;SDS011;10507;52.754;13.040;2023-07-29T14:32:33;2.95;;;1.65;;
20695;SDS011;10507;52.754;13.040;2023-07-29T14:35:37;1.20;;;1.05;;
20695;SDS011;10507;52.754;13.040;2023-07-29T14:38:05;2.95;;;1.30;;
20695;SDS011;10507;52.754;13.040;2023-07-29T14:40:33;1.52;;;1.42;;
20695;SDS011;10507;52.754;13.040;2023-07-29T14:43:01;2.00;;;1.38;;
20695;SDS011;10507;52.754;13.040;2023-07-29T14:45:29;2.13;;;1.60;;
20695;SDS011;10507;52.754;13.040;2023-07-29T14:47:58;3.05;;;1.30;;
20695;SDS011;10507;52.754;13.040;2023-07-29T14:50:26;1.38;;;1.20;;
20695;SDS011;10507;52.754;13.040;2023-07-29T14:52:57;2.03;;;1.50;;
20695;SDS011;10507;52.754;13.040;2023-07-29T14:55:26;2.13;;;1.48;;
20695;SDS011;10507;52.754;13.040;2023-07-29T14:57:55;3.63;;;1.33;;